createdAt,value
2023-05-11T00:01:41.374Z,12.66
2023-05-11T00:04:07.784Z,12.83
2023-05-11T00:06:35.287Z,12.75
2023-05-11T00:09:01.663Z,12.64
2023-05-11T00:11:28.041Z,12.66
2023-05-11T00:13:54.550Z,12.64
2023-05-11T00:16:20.962Z,12.65
2023-05-11T00:18:47.360Z,12.62
2023-05-11T00:21:14.854Z,12.47
2023-05-11T00:23:41.190Z,12.53
2023-05-11T00:26:07.541Z,12.44
2023-05-11T00:28:33.861Z,12.56
2023-05-11T00:31:00.334Z,12.51
2023-05-11T00:33:26.797Z,12.46
2023-05-11T00:35:53.195Z,12.47
2023-05-11T00:38:19.854Z,12.38
2023-05-11T00:40:46.214Z,12.45
2023-05-11T00:43:12.534Z,12.56
2023-05-11T00:45:38.909Z,12.51
2023-05-11T00:48:05.471Z,12.48
2023-05-11T00:50:31.864Z,12.30
2023-05-11T00:52:58.616Z,12.53
2023-05-11T00:55:25.059Z,12.48
2023-05-11T00:57:51.548Z,12.24
2023-05-11T01:00:18.055Z,12.22
2023-05-11T01:02:45.211Z,12.47
2023-05-11T01:05:11.924Z,12.44
2023-05-11T01:08:00.172Z,12.49
2023-05-11T01:10:32.828Z,12.42
2023-05-11T01:13:10.847Z,12.58
2023-05-11T01:15:47.769Z,12.74
2023-05-11T01:18:27.269Z,12.44
2023-05-11T01:21:00.876Z,12.74
2023-05-11T01:23:58.177Z,12.60
2023-05-11T01:27:12.235Z,12.27
2023-05-11T01:29:47.058Z,12.16
2023-05-11T01:32:26.080Z,12.51
2023-05-11T01:35:00.305Z,12.42
2023-05-11T01:37:27.265Z,12.53
2023-05-11T01:39:57.346Z,12.46
2023-05-11T01:42:38.546Z,12.44
2023-05-11T01:45:06.572Z,12.42
2023-05-11T01:47:33.906Z,12.33
2023-05-11T01:50:02.944Z,12.25
2023-05-11T01:52:31.822Z,12.36
2023-05-11T01:54:59.040Z,12.44
2023-05-11T01:57:25.791Z,12.36
2023-05-11T01:59:52.383Z,12.21
2023-05-11T02:02:19.007Z,12.22
2023-05-11T02:04:45.702Z,12.18
2023-05-11T02:07:13.964Z,12.09
2023-05-11T02:09:41.016Z,12.15
2023-05-11T02:12:08.054Z,12.18
2023-05-11T02:14:35.259Z,12.19
2023-05-11T02:17:02.393Z,12.19
2023-05-11T02:19:29.703Z,12.13
2023-05-11T02:21:56.749Z,12.15
2023-05-11T02:24:24.648Z,12.14
2023-05-11T02:26:51.279Z,12.06
2023-05-11T02:29:17.642Z,12.15
2023-05-11T02:31:45.971Z,12.03
2023-05-11T02:34:22.675Z,12.10
2023-05-11T02:36:49.696Z,12.22
2023-05-11T02:39:17.843Z,12.49
2023-05-11T02:41:44.687Z,12.31
2023-05-11T02:44:14.314Z,12.33
2023-05-11T02:46:41.125Z,12.21
2023-05-11T02:49:08.384Z,12.04
2023-05-11T02:51:36.799Z,12.27
2023-05-11T02:54:03.307Z,12.23
2023-05-11T02:56:30.987Z,12.23
2023-05-11T02:58:57.439Z,12.31
2023-05-11T03:01:24.181Z,12.25
2023-05-11T03:03:50.776Z,12.15
2023-05-11T03:06:17.191Z,11.95
2023-05-11T03:08:43.574Z,12.11
2023-05-11T03:11:10.145Z,12.10
2023-05-11T03:13:37.089Z,12.17
2023-05-11T03:16:04.159Z,12.10
2023-05-11T03:18:31.442Z,12.16
2023-05-11T03:20:59.513Z,12.06
2023-05-11T03:23:26.656Z,12.18
2023-05-11T03:25:53.108Z,12.11
2023-05-11T03:28:19.959Z,12.05
2023-05-11T03:30:46.618Z,12.02
2023-05-11T03:33:13.088Z,12.02
2023-05-11T03:35:41.273Z,12.19
2023-05-11T03:38:07.769Z,12.04
2023-05-11T03:40:34.132Z,12.03
2023-05-11T03:43:02.313Z,11.96
2023-05-11T03:45:29.423Z,11.96
2023-05-11T03:47:56.312Z,11.92
2023-05-11T03:50:22.744Z,11.91
2023-05-11T03:52:49.335Z,11.90
2023-05-11T03:55:15.684Z,11.89
2023-05-11T03:57:42.083Z,11.94
2023-05-11T04:00:10.448Z,11.99
2023-05-11T04:02:37.109Z,12.02
2023-05-11T04:05:10.894Z,11.91
2023-05-11T04:07:38.127Z,12.05
2023-05-11T04:10:05.858Z,12.06
2023-05-11T04:12:32.486Z,12.28
2023-05-11T04:14:58.807Z,12.20
2023-05-11T04:17:25.197Z,12.15
2023-05-11T04:19:51.655Z,12.23
2023-05-11T04:22:17.981Z,12.22
2023-05-11T04:24:44.312Z,12.38
2023-05-11T04:27:10.641Z,12.38
2023-05-11T04:29:36.998Z,12.36
2023-05-11T04:32:03.446Z,12.27
2023-05-11T04:34:29.777Z,12.28
2023-05-11T04:36:56.345Z,12.25
2023-05-11T04:39:22.689Z,12.27
2023-05-11T04:41:49.051Z,12.29
2023-05-11T04:44:15.389Z,12.28
2023-05-11T04:46:41.746Z,12.25
2023-05-11T04:49:08.079Z,12.28
2023-05-11T04:51:34.420Z,12.32
2023-05-11T04:54:00.753Z,12.32
2023-05-11T04:56:27.101Z,12.36
2023-05-11T04:58:53.434Z,12.35
2023-05-11T05:01:22.005Z,12.35
2023-05-11T05:03:49.134Z,12.36
2023-05-11T05:06:15.560Z,12.32
2023-05-11T05:08:41.883Z,12.39
2023-05-11T05:11:08.203Z,12.41
2023-05-11T05:13:34.547Z,12.39
2023-05-11T05:16:00.887Z,12.46
2023-05-11T05:18:27.292Z,12.52
2023-05-11T05:20:53.619Z,12.43
2023-05-11T05:23:19.963Z,12.60
2023-05-11T05:25:46.343Z,12.66
2023-05-11T05:28:12.676Z,12.74
2023-05-11T05:30:39.073Z,12.74
2023-05-11T05:33:05.618Z,12.82
2023-05-11T05:35:32.094Z,12.84
2023-05-11T05:37:58.450Z,12.86
2023-05-11T05:40:24.813Z,12.87
2023-05-11T05:42:51.134Z,12.90
2023-05-11T05:45:17.481Z,12.92
2023-05-11T05:47:43.889Z,13.05
2023-05-11T05:50:10.422Z,13.08
2023-05-11T05:52:36.747Z,13.09
2023-05-11T05:55:03.172Z,13.11
2023-05-11T05:57:29.515Z,13.15
2023-05-11T05:59:56.126Z,13.25
2023-05-11T06:02:22.524Z,13.35
2023-05-11T06:04:48.968Z,13.39
2023-05-11T06:07:15.329Z,13.47
2023-05-11T06:09:41.661Z,13.31
2023-05-11T06:12:07.986Z,13.41
2023-05-11T06:14:34.310Z,13.28
2023-05-11T06:17:00.652Z,13.23
2023-05-11T06:19:26.983Z,13.26
2023-05-11T06:21:53.408Z,13.46
2023-05-11T06:24:19.764Z,13.43
2023-05-11T06:26:46.208Z,13.31
2023-05-11T06:29:12.541Z,13.27
2023-05-11T06:31:38.885Z,13.28
2023-05-11T06:34:05.326Z,13.43
2023-05-11T06:36:31.822Z,13.54
2023-05-11T06:38:58.152Z,13.56
2023-05-11T06:41:24.469Z,13.78
2023-05-11T06:43:50.802Z,13.83
2023-05-11T06:46:17.147Z,14.04
2023-05-11T06:48:43.494Z,14.01
2023-05-11T06:51:10.562Z,13.84
2023-05-11T06:53:37.230Z,14.03
2023-05-11T06:56:04.036Z,13.83
2023-05-11T06:58:30.439Z,13.84
2023-05-11T07:00:56.946Z,13.74
2023-05-11T07:03:23.319Z,13.67
2023-05-11T07:05:49.649Z,13.61
2023-05-11T07:08:16.083Z,13.55
2023-05-11T07:10:42.459Z,13.62
2023-05-11T07:13:09.835Z,13.57
2023-05-11T07:15:36.199Z,13.63
2023-05-11T07:18:02.738Z,13.68
2023-05-11T07:20:29.208Z,13.89
2023-05-11T07:22:58.992Z,14.29
2023-05-11T07:25:25.603Z,14.45
2023-05-11T07:27:51.910Z,14.86
2023-05-11T07:30:18.876Z,14.76
2023-05-11T07:32:45.378Z,14.82
2023-05-11T07:35:11.883Z,14.65
2023-05-11T07:37:38.245Z,14.58
2023-05-11T07:40:05.120Z,14.53
2023-05-11T07:42:31.462Z,14.54
2023-05-11T07:44:57.797Z,14.58
2023-05-11T07:47:24.147Z,14.53
2023-05-11T07:49:50.724Z,14.58
2023-05-11T07:52:17.608Z,14.58
2023-05-11T07:54:44.880Z,14.67
2023-05-11T07:57:12.269Z,14.84
2023-05-11T07:59:38.629Z,14.93
2023-05-11T08:02:06.810Z,15.43
2023-05-11T08:04:33.215Z,15.46
2023-05-11T08:06:59.580Z,15.58
2023-05-11T08:09:25.984Z,15.53
2023-05-11T08:11:52.347Z,15.37
2023-05-11T08:14:18.694Z,15.80
2023-05-11T08:16:46.124Z,15.94
2023-05-11T08:19:13.569Z,16.01
2023-05-11T08:21:39.905Z,15.84
2023-05-11T08:24:06.440Z,15.74
2023-05-11T08:26:32.816Z,15.53
2023-05-11T08:28:59.162Z,15.50
2023-05-11T08:31:25.574Z,15.55
2023-05-11T08:33:51.975Z,15.49
2023-05-11T08:36:19.540Z,15.98
2023-05-11T08:38:45.884Z,16.13
2023-05-11T08:41:12.711Z,15.96
2023-05-11T08:43:39.743Z,15.94
2023-05-11T08:46:07.585Z,16.40
2023-05-11T08:48:34.648Z,16.91
2023-05-11T08:51:01.548Z,16.68
2023-05-11T08:53:27.991Z,17.03
2023-05-11T08:55:58.654Z,17.35
2023-05-11T08:58:26.313Z,17.62
2023-05-11T09:00:52.941Z,17.15
2023-05-11T09:03:19.964Z,17.09
2023-05-11T09:05:47.223Z,16.80
2023-05-11T09:08:14.505Z,16.64
2023-05-11T09:10:40.847Z,17.03
2023-05-11T09:13:07.178Z,17.17
2023-05-11T09:15:36.864Z,17.31
2023-05-11T09:18:04.549Z,17.77
2023-05-11T09:20:33.034Z,17.38
2023-05-11T09:22:59.919Z,17.52
2023-05-11T09:25:26.969Z,17.63
2023-05-11T09:27:53.325Z,17.91
2023-05-11T09:30:23.841Z,17.91
2023-05-11T09:32:51.239Z,17.57
2023-05-11T09:35:30.625Z,17.05
2023-05-11T09:38:09.854Z,17.71
2023-05-11T09:40:41.261Z,17.65
2023-05-11T09:43:17.976Z,17.52
2023-05-11T09:45:48.056Z,17.81
2023-05-11T09:48:21.425Z,17.82
2023-05-11T09:50:48.699Z,17.87
2023-05-11T09:53:15.239Z,18.12
2023-05-11T09:55:52.693Z,17.93
2023-05-11T09:58:19.076Z,18.54
2023-05-11T10:00:49.697Z,18.20
2023-05-11T10:03:16.126Z,18.22
2023-05-11T10:05:56.306Z,18.17
2023-05-11T10:08:28.162Z,18.56
2023-05-11T10:10:55.241Z,18.38
2023-05-11T10:13:21.676Z,18.09
2023-05-11T10:15:49.450Z,18.59
2023-05-11T10:18:16.920Z,18.49
2023-05-11T10:20:44.677Z,18.65
2023-05-11T10:23:11.377Z,18.13
2023-05-11T10:25:38.023Z,18.37
2023-05-11T10:28:04.955Z,18.52
2023-05-11T10:30:31.479Z,19.05
2023-05-11T10:33:00.938Z,18.36
2023-05-11T10:35:27.815Z,18.59
2023-05-11T10:37:54.379Z,18.35
2023-05-11T10:40:21.821Z,18.22
2023-05-11T10:43:08.256Z,18.09
2023-05-11T10:45:40.612Z,17.96
2023-05-11T10:48:19.146Z,18.58
2023-05-11T10:51:12.267Z,18.58
2023-05-11T10:53:44.670Z,18.52
2023-05-11T10:56:30.659Z,18.94
2023-05-11T10:59:19.486Z,19.31
2023-05-11T11:01:46.516Z,19.02
2023-05-11T11:04:13.746Z,18.96
2023-05-11T11:06:42.981Z,18.59
2023-05-11T11:09:16.171Z,18.97
2023-05-11T11:11:47.381Z,18.62
2023-05-11T11:14:15.428Z,19.07
2023-05-11T11:17:16.989Z,18.76
2023-05-11T11:19:43.587Z,18.75
2023-05-11T11:22:34.985Z,18.53
2023-05-11T11:25:11.398Z,18.48
2023-05-11T11:27:40.496Z,18.17
2023-05-11T11:30:19.934Z,18.15
2023-05-11T11:32:47.636Z,18.24
2023-05-11T11:35:42.476Z,18.18
2023-05-11T11:38:09.998Z,18.34
2023-05-11T11:40:49.423Z,18.43
2023-05-11T11:43:18.781Z,18.30
2023-05-11T11:45:52.683Z,18.08
2023-05-11T11:48:40.797Z,17.98
2023-05-11T11:51:08.620Z,17.83
2023-05-11T11:53:38.314Z,17.75
2023-05-11T11:56:05.636Z,17.72
2023-05-11T11:58:41.158Z,17.73
2023-05-11T12:01:08.464Z,17.70
2023-05-11T12:03:36.236Z,17.75
2023-05-11T12:06:05.212Z,17.81
2023-05-11T12:08:31.909Z,18.00
2023-05-11T12:10:59.151Z,18.14
2023-05-11T12:13:25.960Z,18.22
2023-05-11T12:16:11.773Z,18.21
2023-05-11T12:18:42.256Z,18.42
2023-05-11T12:21:24.812Z,18.62
2023-05-11T12:24:04.887Z,18.46
2023-05-11T12:26:33.053Z,18.31
2023-05-11T12:29:10.219Z,18.41
2023-05-11T12:31:43.979Z,18.25
2023-05-11T12:34:14.795Z,18.15
2023-05-11T12:36:41.181Z,17.92
2023-05-11T12:39:07.561Z,17.65
2023-05-11T12:41:33.920Z,17.69
2023-05-11T12:44:00.445Z,17.55
2023-05-11T12:46:27.095Z,17.37
2023-05-11T12:48:53.618Z,17.28
2023-05-11T12:51:42.161Z,17.34
2023-05-11T12:54:08.522Z,17.23
2023-05-11T12:56:49.838Z,17.38
2023-05-11T12:59:32.266Z,17.33
2023-05-11T13:02:24.968Z,17.28
2023-05-11T13:04:51.273Z,17.32
2023-05-11T13:07:25.380Z,17.41
2023-05-11T13:09:59.455Z,17.41
2023-05-11T13:12:26.114Z,17.46
2023-05-11T13:15:04.414Z,17.53
2023-05-11T13:17:31.660Z,17.52
2023-05-11T13:20:30.412Z,17.64
2023-05-11T13:23:04.005Z,17.71
2023-05-11T13:25:30.472Z,17.73
2023-05-11T13:27:56.812Z,17.78
2023-05-11T13:30:23.211Z,17.81
2023-05-11T13:32:49.629Z,17.91
2023-05-11T13:35:16.161Z,17.97
2023-05-11T13:37:42.551Z,18.02
2023-05-11T13:40:09.455Z,18.02
2023-05-11T13:42:36.536Z,18.01
2023-05-11T13:45:03.131Z,18.56
2023-05-11T13:47:29.509Z,18.96
2023-05-11T13:49:55.897Z,19.37
2023-05-11T13:52:22.557Z,18.93
2023-05-11T13:54:48.916Z,19.38
2023-05-11T13:57:15.604Z,19.36
2023-05-11T13:59:41.984Z,19.69
2023-05-11T14:02:08.375Z,19.86
2023-05-11T14:04:34.728Z,19.45
2023-05-11T14:07:01.067Z,18.70
2023-05-11T14:09:27.428Z,18.41
2023-05-11T14:11:53.748Z,18.23
2023-05-11T14:14:20.113Z,17.93
2023-05-11T14:16:46.485Z,17.98
2023-05-11T14:19:12.884Z,17.83
2023-05-11T14:21:39.489Z,17.79
2023-05-11T14:24:11.966Z,17.74
2023-05-11T14:26:39.266Z,17.63
2023-05-11T14:29:05.649Z,17.71
2023-05-11T14:31:32.522Z,17.73
2023-05-11T14:33:59.165Z,17.76
2023-05-11T14:36:25.997Z,17.74
2023-05-11T14:38:52.364Z,17.83
2023-05-11T14:41:18.741Z,17.74
2023-05-11T14:43:45.122Z,17.81
2023-05-11T14:46:11.635Z,17.72
2023-05-11T14:48:37.967Z,17.78
2023-05-11T14:51:04.305Z,17.75
2023-05-11T14:53:31.003Z,17.80
2023-05-11T14:55:57.380Z,17.80
2023-05-11T14:58:23.749Z,17.79
2023-05-11T15:00:50.131Z,17.83
2023-05-11T15:03:16.506Z,17.79
2023-05-11T15:05:42.891Z,17.89
2023-05-11T15:08:21.709Z,17.83
2023-05-11T15:10:55.218Z,17.83
2023-05-11T15:13:22.418Z,17.86
2023-05-11T15:15:48.819Z,17.74
2023-05-11T15:18:15.319Z,17.93
2023-05-11T15:20:42.358Z,17.97
2023-05-11T15:23:08.810Z,17.99
2023-05-11T15:25:38.131Z,17.94
2023-05-11T15:28:04.476Z,17.77
2023-05-11T15:30:32.616Z,17.78
2023-05-11T15:32:59.287Z,17.74
2023-05-11T15:35:25.677Z,17.78
2023-05-11T15:37:51.984Z,17.63
2023-05-11T15:40:19.446Z,17.70
2023-05-11T15:42:45.851Z,17.64
2023-05-11T15:45:12.210Z,17.59
2023-05-11T15:47:38.616Z,17.64
2023-05-11T15:50:05.884Z,17.63
2023-05-11T15:52:32.229Z,17.58
2023-05-11T15:54:58.652Z,17.59
2023-05-11T15:57:24.984Z,17.57
2023-05-11T15:59:51.311Z,17.68
2023-05-11T16:02:17.695Z,17.66
2023-05-11T16:04:44.063Z,17.72
2023-05-11T16:07:10.553Z,17.51
2023-05-11T16:09:36.873Z,17.68
2023-05-11T16:12:03.374Z,17.68
2023-05-11T16:14:29.776Z,17.72
2023-05-11T16:16:56.157Z,17.69
2023-05-11T16:19:22.501Z,17.79
2023-05-11T16:21:48.816Z,17.68
2023-05-11T16:24:15.140Z,17.74
2023-05-11T16:26:41.510Z,17.69
2023-05-11T16:29:07.833Z,17.68
2023-05-11T16:31:34.230Z,17.61
2023-05-11T16:34:00.585Z,17.70
2023-05-11T16:36:28.886Z,17.69
2023-05-11T16:38:55.278Z,17.61
2023-05-11T16:41:21.662Z,17.68
2023-05-11T16:43:47.983Z,17.72
2023-05-11T16:46:14.910Z,17.61
2023-05-11T16:48:41.302Z,17.63
2023-05-11T16:51:07.658Z,17.59
2023-05-11T16:53:34.002Z,17.59
2023-05-11T16:56:00.326Z,17.51
2023-05-11T16:58:26.675Z,17.40
2023-05-11T17:00:53.040Z,17.47
2023-05-11T17:03:19.461Z,17.41
2023-05-11T17:05:45.950Z,17.40
2023-05-11T17:08:12.272Z,17.38
2023-05-11T17:10:38.620Z,17.37
2023-05-11T17:13:04.953Z,17.33
2023-05-11T17:15:31.343Z,17.31
2023-05-11T17:17:57.742Z,17.38
2023-05-11T17:20:24.169Z,17.35
2023-05-11T17:22:50.560Z,17.28
2023-05-11T17:25:16.950Z,17.14
2023-05-11T17:27:44.335Z,17.17
2023-05-11T17:30:10.977Z,17.12
2023-05-11T17:32:37.632Z,17.15
2023-05-11T17:35:04.322Z,17.06
2023-05-11T17:37:32.434Z,17.03
2023-05-11T17:39:59.972Z,16.80
2023-05-11T17:42:26.603Z,17.08
2023-05-11T17:44:52.963Z,16.93
2023-05-11T17:47:19.301Z,17.00
2023-05-11T17:49:45.653Z,16.96
2023-05-11T17:52:11.987Z,16.90
2023-05-11T17:54:38.334Z,16.85
2023-05-11T17:57:04.896Z,16.86
2023-05-11T17:59:31.209Z,16.91
2023-05-11T18:01:57.702Z,16.86
2023-05-11T18:04:24.176Z,16.91
2023-05-11T18:06:50.576Z,16.84
2023-05-11T18:09:16.966Z,16.82
2023-05-11T18:11:43.357Z,16.79
2023-05-11T18:14:09.686Z,16.65
2023-05-11T18:16:36.279Z,16.66
2023-05-11T18:19:03.220Z,16.70
2023-05-11T18:21:29.594Z,16.58
2023-05-11T18:23:55.996Z,16.58
2023-05-11T18:26:22.500Z,16.69
2023-05-11T18:28:49.032Z,16.66
2023-05-11T18:31:15.376Z,16.52
2023-05-11T18:33:41.728Z,16.61
2023-05-11T18:36:08.065Z,16.38
2023-05-11T18:38:34.496Z,16.38
2023-05-11T18:41:04.391Z,16.43
2023-05-11T18:43:30.735Z,16.45
2023-05-11T18:45:57.252Z,16.48
2023-05-11T18:48:23.599Z,16.39
2023-05-11T18:50:56.398Z,16.24
2023-05-11T18:53:23.371Z,16.37
2023-05-11T18:55:53.586Z,16.31
2023-05-11T18:58:20.395Z,16.33
2023-05-11T19:00:50.888Z,16.33
2023-05-11T19:03:19.530Z,16.31
2023-05-11T19:05:46.344Z,16.24
2023-05-11T19:08:12.706Z,16.10
2023-05-11T19:10:39.269Z,16.12
2023-05-11T19:13:06.163Z,16.02
2023-05-11T19:15:32.852Z,16.03
2023-05-11T19:17:59.619Z,16.04
2023-05-11T19:20:26.018Z,16.05
2023-05-11T19:22:52.355Z,15.93
2023-05-11T19:25:18.704Z,15.98
2023-05-11T19:27:45.037Z,15.91
2023-05-11T19:30:11.417Z,15.89
2023-05-11T19:32:38.086Z,15.81
2023-05-11T19:35:05.728Z,15.96
2023-05-11T19:37:32.094Z,15.85
2023-05-11T19:40:11.419Z,15.88
2023-05-11T19:42:44.906Z,15.92
2023-05-11T19:45:11.353Z,15.78
2023-05-11T19:47:39.184Z,15.89
2023-05-11T19:50:06.431Z,15.85
2023-05-11T19:52:32.790Z,15.85
2023-05-11T19:54:59.250Z,15.74
2023-05-11T19:57:25.593Z,15.67
2023-05-11T19:59:51.931Z,15.69
2023-05-11T20:02:18.259Z,15.78
2023-05-11T20:04:44.607Z,15.70
2023-05-11T20:07:11.108Z,15.69
2023-05-11T20:09:37.448Z,15.68
2023-05-11T20:12:03.838Z,15.54
2023-05-11T20:14:30.195Z,15.70
2023-05-11T20:16:56.622Z,15.52
2023-05-11T20:19:22.970Z,15.58
2023-05-11T20:21:49.287Z,15.47
2023-05-11T20:24:15.654Z,15.44
2023-05-11T20:26:41.997Z,15.34
2023-05-11T20:29:08.323Z,15.36
2023-05-11T20:31:34.684Z,15.11
2023-05-11T20:36:30.284Z,15.07
2023-05-11T20:38:56.638Z,15.02
2023-05-11T20:41:22.989Z,15.02
2023-05-11T20:43:49.306Z,14.96
2023-05-11T20:46:15.723Z,15.02
2023-05-11T20:48:43.730Z,14.90
2023-05-11T20:51:13.266Z,14.95
2023-05-11T20:53:39.664Z,14.96
2023-05-11T20:56:06.142Z,14.89
2023-05-11T20:58:32.472Z,14.88
2023-05-11T21:00:58.888Z,14.83
2023-05-11T21:03:25.898Z,14.80
2023-05-11T21:05:52.291Z,14.63
2023-05-11T21:08:18.612Z,14.61
2023-05-11T21:10:44.929Z,14.62
2023-05-11T21:13:11.235Z,14.56
2023-05-11T21:15:37.566Z,14.57
2023-05-11T21:18:04.204Z,14.49
2023-05-11T21:20:30.560Z,14.25
2023-05-11T21:22:56.954Z,14.41
2023-05-11T21:25:23.304Z,14.43
2023-05-11T21:27:49.675Z,14.45
2023-05-11T21:30:16.140Z,14.37
2023-05-11T21:32:42.515Z,14.37
2023-05-11T21:35:09.283Z,14.32
2023-05-11T21:37:35.690Z,14.29
2023-05-11T21:40:02.235Z,14.05
2023-05-11T21:42:28.625Z,14.13
2023-05-11T21:44:54.952Z,14.19
2023-05-11T21:47:21.338Z,14.15
2023-05-11T21:49:48.969Z,14.02
2023-05-11T21:52:16.483Z,13.99
2023-05-11T21:54:43.070Z,14.04
2023-05-11T21:57:09.532Z,13.94
2023-05-11T21:59:35.868Z,13.89
2023-05-11T22:02:02.271Z,13.83
2023-05-11T22:04:28.714Z,13.69
2023-05-11T22:06:57.850Z,13.56
2023-05-11T22:09:26.318Z,13.37
2023-05-11T22:11:52.651Z,13.35
2023-05-11T22:14:19.002Z,13.12
2023-05-11T22:16:45.360Z,13.10
2023-05-11T22:19:13.205Z,13.05
2023-05-11T22:21:39.536Z,12.90
2023-05-11T22:24:06.349Z,12.91
2023-05-11T22:26:32.693Z,12.81
2023-05-11T22:28:59.043Z,12.53
2023-05-11T22:31:25.555Z,12.48
2023-05-11T22:33:52.110Z,12.51
2023-05-11T22:36:18.517Z,12.43
2023-05-11T22:38:44.913Z,12.26
2023-05-11T22:41:11.291Z,12.13
2023-05-11T22:43:37.682Z,12.25
2023-05-11T22:46:04.110Z,11.88
2023-05-11T22:48:30.500Z,11.97
2023-05-11T22:50:56.807Z,12.04
2023-05-11T22:53:23.211Z,12.15
2023-05-11T22:55:49.603Z,11.78
2023-05-11T22:58:15.975Z,11.67
2023-05-11T23:00:42.335Z,11.67
2023-05-11T23:03:08.878Z,11.48
2023-05-11T23:05:35.304Z,11.56
2023-05-11T23:08:01.669Z,11.40
2023-05-11T23:10:28.077Z,11.46
2023-05-11T23:12:55.133Z,11.44
2023-05-11T23:15:21.469Z,11.36
2023-05-11T23:17:47.839Z,11.22
2023-05-11T23:20:14.270Z,11.23
2023-05-11T23:22:40.631Z,11.35
2023-05-11T23:25:07.456Z,11.15
2023-05-11T23:27:33.807Z,11.19
2023-05-11T23:30:00.154Z,11.06
2023-05-11T23:32:26.550Z,10.87
2023-05-11T23:34:52.932Z,10.78
2023-05-11T23:37:19.250Z,10.74
2023-05-11T23:39:45.694Z,10.70
2023-05-11T23:42:12.026Z,10.80
2023-05-11T23:44:38.576Z,10.97
2023-05-11T23:47:05.235Z,10.96
2023-05-11T23:49:31.601Z,10.97
2023-05-11T23:51:58.031Z,10.98
2023-05-11T23:54:24.411Z,11.05
2023-05-11T23:56:50.751Z,11.26
2023-05-11T23:59:17.090Z,11.27
